createdAt,value
2023-05-10T00:02:25.578Z,12.77
2023-05-10T00:04:52.300Z,13.43
2023-05-10T00:07:18.870Z,14.15
2023-05-10T00:09:45.302Z,13.95
2023-05-10T00:12:11.771Z,15.25
2023-05-10T00:14:38.093Z,14.10
2023-05-10T00:17:04.515Z,14.73
2023-05-10T00:19:30.997Z,14.70
2023-05-10T00:21:57.388Z,17.40
2023-05-10T00:24:23.765Z,14.70
2023-05-10T00:26:50.174Z,15.25
2023-05-10T00:29:16.629Z,15.98
2023-05-10T00:31:43.014Z,16.17
2023-05-10T00:34:09.493Z,15.70
2023-05-10T00:36:35.903Z,15.90
2023-05-10T00:39:04.113Z,16.63
2023-05-10T00:41:33.580Z,17.90
2023-05-10T00:43:59.925Z,18.02
2023-05-10T00:46:26.936Z,18.60
2023-05-10T00:48:53.621Z,19.17
2023-05-10T00:51:20.141Z,19.42
2023-05-10T00:53:47.086Z,19.73
2023-05-10T00:56:13.924Z,19.45
2023-05-10T00:58:40.876Z,17.35
2023-05-10T01:01:08.650Z,19.08
2023-05-10T01:03:35.414Z,19.25
2023-05-10T01:06:01.833Z,18.77
2023-05-10T01:08:29.868Z,19.92
2023-05-10T01:10:56.519Z,18.48
2023-05-10T01:13:37.050Z,18.80
2023-05-10T01:16:04.314Z,18.77
2023-05-10T01:18:34.085Z,20.20
2023-05-10T01:21:12.476Z,18.50
2023-05-10T01:23:47.677Z,18.77
2023-05-10T01:26:26.170Z,18.00
2023-05-10T01:29:17.439Z,18.33
2023-05-10T01:32:17.257Z,18.00
2023-05-10T01:35:00.759Z,19.17
2023-05-10T01:37:39.069Z,19.60
2023-05-10T01:40:19.576Z,19.13
2023-05-10T01:43:16.843Z,17.25
2023-05-10T01:46:05.546Z,18.30
2023-05-10T01:48:33.217Z,17.67
2023-05-10T01:50:59.813Z,18.70
2023-05-10T01:53:27.506Z,19.27
2023-05-10T01:55:58.446Z,19.40
2023-05-10T01:58:31.354Z,19.88
2023-05-10T02:01:01.732Z,18.25
2023-05-10T02:03:29.472Z,19.95
2023-05-10T02:05:58.062Z,19.10
2023-05-10T02:08:25.881Z,18.75
2023-05-10T02:10:55.498Z,19.35
2023-05-10T02:13:24.085Z,19.95
2023-05-10T02:15:52.292Z,20.23
2023-05-10T02:18:19.321Z,20.33
2023-05-10T02:20:47.860Z,20.23
2023-05-10T02:23:17.821Z,18.80
2023-05-10T02:25:45.615Z,19.92
2023-05-10T02:28:13.932Z,18.55
2023-05-10T02:30:41.213Z,17.63
2023-05-10T02:33:08.464Z,20.00
2023-05-10T02:35:36.207Z,17.88
2023-05-10T02:38:03.564Z,18.77
2023-05-10T02:40:31.324Z,18.48
2023-05-10T02:43:00.073Z,20.05
2023-05-10T02:45:30.084Z,19.95
2023-05-10T02:47:57.330Z,19.67
2023-05-10T02:50:28.317Z,20.85
2023-05-10T02:53:00.397Z,20.65
2023-05-10T02:55:33.248Z,19.48
2023-05-10T02:58:01.961Z,21.27
2023-05-10T03:00:28.473Z,19.67
2023-05-10T03:02:54.957Z,21.33
2023-05-10T03:05:21.592Z,22.42
2023-05-10T03:07:48.690Z,23.33
2023-05-10T03:10:15.436Z,23.15
2023-05-10T03:12:52.016Z,20.35
2023-05-10T03:15:53.774Z,21.90
2023-05-10T03:18:24.369Z,20.25
2023-05-10T03:20:55.835Z,21.63
2023-05-10T03:23:31.309Z,20.25
2023-05-10T03:25:58.803Z,20.88
2023-05-10T03:28:26.922Z,22.85
2023-05-10T03:30:55.311Z,21.30
2023-05-10T03:33:22.035Z,20.67
2023-05-10T03:35:48.660Z,22.83
2023-05-10T03:38:15.318Z,20.85
2023-05-10T03:40:41.713Z,21.27
2023-05-10T03:43:08.096Z,19.73
2023-05-10T03:45:34.571Z,20.92
2023-05-10T03:48:00.994Z,23.55
2023-05-10T03:50:27.427Z,22.35
2023-05-10T03:52:54.869Z,22.88
2023-05-10T03:55:21.453Z,22.83
2023-05-10T03:57:50.375Z,21.92
2023-05-10T04:00:17.664Z,21.15
2023-05-10T04:02:46.073Z,20.83
2023-05-10T04:05:13.430Z,21.30
2023-05-10T04:07:39.806Z,20.83
2023-05-10T04:10:06.717Z,20.17
2023-05-10T04:12:33.106Z,21.38
2023-05-10T04:14:59.532Z,19.23
2023-05-10T04:17:26.110Z,20.00
2023-05-10T04:19:55.385Z,19.42
2023-05-10T04:22:21.749Z,19.33
2023-05-10T04:24:48.175Z,18.63
2023-05-10T04:27:14.518Z,19.98
2023-05-10T04:29:41.036Z,19.73
2023-05-10T04:32:07.483Z,20.73
2023-05-10T04:34:35.106Z,17.98
2023-05-10T04:37:01.568Z,19.55
2023-05-10T04:39:27.953Z,18.55
2023-05-10T04:41:54.317Z,19.42
2023-05-10T04:44:20.653Z,19.13
2023-05-10T04:46:47.197Z,19.58
2023-05-10T04:49:13.631Z,19.23
2023-05-10T04:51:39.998Z,19.25
2023-05-10T04:54:07.008Z,20.92
2023-05-10T04:56:33.790Z,18.55
2023-05-10T04:59:00.172Z,20.27
2023-05-10T05:01:26.648Z,20.90
2023-05-10T05:03:53.993Z,20.77
2023-05-10T05:06:22.097Z,19.38
2023-05-10T05:08:50.406Z,20.60
2023-05-10T05:11:17.568Z,20.50
2023-05-10T05:13:53.169Z,21.15
2023-05-10T05:16:19.618Z,19.30
2023-05-10T05:18:48.507Z,20.20
2023-05-10T05:21:19.275Z,18.63
2023-05-10T05:23:45.800Z,19.77
2023-05-10T05:26:12.145Z,20.88
2023-05-10T05:28:38.704Z,20.75
2023-05-10T05:31:08.979Z,18.27
2023-05-10T05:33:35.901Z,20.08
2023-05-10T05:36:03.812Z,20.65
2023-05-10T05:38:30.376Z,20.35
2023-05-10T05:40:56.805Z,20.23
2023-05-10T05:43:23.256Z,23.33
2023-05-10T05:45:50.283Z,20.90
2023-05-10T05:48:16.732Z,21.73
2023-05-10T05:50:43.105Z,20.50
2023-05-10T05:53:09.951Z,19.35
2023-05-10T05:55:36.389Z,23.80
2023-05-10T05:58:02.760Z,22.08
2023-05-10T06:00:29.460Z,19.80
2023-05-10T06:02:55.935Z,18.55
2023-05-10T06:05:22.712Z,19.33
2023-05-10T06:07:49.081Z,19.02
2023-05-10T06:10:15.534Z,19.77
2023-05-10T06:12:41.999Z,18.35
2023-05-10T06:15:09.089Z,18.58
2023-05-10T06:17:35.565Z,20.65
2023-05-10T06:20:02.132Z,18.02
2023-05-10T06:22:28.509Z,19.55
2023-05-10T06:24:54.812Z,18.38
2023-05-10T06:27:21.249Z,19.17
2023-05-10T06:29:48.315Z,16.52
2023-05-10T06:32:16.779Z,16.90
2023-05-10T06:34:44.359Z,17.23
2023-05-10T06:37:10.707Z,17.35
2023-05-10T06:39:37.723Z,17.60
2023-05-10T06:42:05.512Z,16.85
2023-05-10T06:44:31.929Z,15.82
2023-05-10T06:46:58.338Z,15.57
2023-05-10T06:49:24.778Z,14.38
2023-05-10T06:51:51.144Z,14.85
2023-05-10T06:54:17.614Z,13.75
2023-05-10T06:56:44.101Z,13.38
2023-05-10T06:59:10.688Z,13.13
2023-05-10T07:01:37.142Z,14.10
2023-05-10T07:04:03.629Z,13.48
2023-05-10T07:06:35.757Z,12.55
2023-05-10T07:11:28.532Z,11.38
2023-05-10T07:13:54.954Z,9.48
2023-05-10T07:16:24.372Z,9.63
2023-05-10T07:18:51.570Z,8.68
2023-05-10T07:21:18.174Z,8.18
2023-05-10T07:23:45.334Z,9.25
2023-05-10T07:26:12.547Z,8.57
2023-05-10T07:28:40.050Z,7.25
2023-05-10T07:31:06.764Z,6.82
2023-05-10T07:33:33.148Z,8.45
2023-05-10T07:35:59.564Z,7.82
2023-05-10T07:38:26.136Z,7.93
2023-05-10T07:40:52.543Z,7.80
2023-05-10T07:43:18.979Z,8.43
2023-05-10T07:45:45.368Z,7.35
2023-05-10T07:48:12.073Z,7.35
2023-05-10T07:50:38.384Z,6.55
2023-05-10T07:53:04.788Z,7.25
2023-05-10T07:55:31.085Z,7.18
2023-05-10T07:57:57.700Z,7.10
2023-05-10T08:00:24.132Z,6.60
2023-05-10T08:02:50.671Z,7.10
2023-05-10T08:05:17.377Z,7.40
2023-05-10T08:07:43.992Z,8.00
2023-05-10T08:10:14.540Z,7.00
2023-05-10T08:12:41.110Z,6.78
2023-05-10T08:15:10.329Z,7.93
2023-05-10T08:17:36.864Z,7.55
2023-05-10T08:20:03.553Z,7.82
2023-05-10T08:22:30.001Z,7.43
2023-05-10T08:24:56.419Z,7.72
2023-05-10T08:27:22.829Z,8.32
2023-05-10T08:29:50.455Z,7.93
2023-05-10T08:32:17.505Z,7.38
2023-05-10T08:34:43.994Z,8.70
2023-05-10T08:37:13.823Z,8.25
2023-05-10T08:39:40.366Z,8.15
2023-05-10T08:42:07.720Z,7.72
2023-05-10T08:44:36.610Z,9.18
2023-05-10T08:47:06.491Z,8.52
2023-05-10T08:49:33.946Z,8.05
2023-05-10T08:52:05.249Z,8.63
2023-05-10T08:54:35.594Z,8.63
2023-05-10T08:57:02.340Z,8.63
2023-05-10T08:59:29.480Z,8.93
2023-05-10T09:01:58.926Z,8.40
2023-05-10T09:04:25.947Z,9.57
2023-05-10T09:06:52.767Z,8.07
2023-05-10T09:09:20.771Z,9.18
2023-05-10T09:11:47.575Z,8.52
2023-05-10T09:14:14.493Z,7.22
2023-05-10T09:16:41.334Z,6.72
2023-05-10T09:19:09.548Z,6.97
2023-05-10T09:21:39.189Z,6.97
2023-05-10T09:24:07.697Z,6.35
2023-05-10T09:26:34.522Z,6.93
2023-05-10T09:29:01.272Z,5.80
2023-05-10T09:31:51.921Z,6.40
2023-05-10T09:34:20.044Z,5.20
2023-05-10T09:36:57.340Z,5.70
2023-05-10T09:39:37.779Z,5.07
2023-05-10T09:42:09.548Z,4.75
2023-05-10T09:44:36.703Z,5.15
2023-05-10T09:47:03.985Z,5.10
2023-05-10T09:49:30.921Z,4.97
2023-05-10T09:52:03.350Z,4.40
2023-05-10T09:54:29.819Z,5.55
2023-05-10T09:56:56.381Z,3.58
2023-05-10T09:59:25.632Z,3.58
2023-05-10T10:01:52.432Z,3.75
2023-05-10T10:04:19.050Z,4.28
2023-05-10T10:06:45.604Z,4.43
2023-05-10T10:09:12.107Z,4.03
2023-05-10T10:11:39.723Z,4.57
2023-05-10T10:14:06.448Z,4.35
2023-05-10T10:16:33.426Z,3.90
2023-05-10T10:18:59.973Z,4.60
2023-05-10T10:21:26.692Z,4.78
2023-05-10T10:23:54.046Z,4.25
2023-05-10T10:26:21.970Z,4.82
2023-05-10T10:29:08.416Z,5.70
2023-05-10T10:31:42.950Z,5.70
2023-05-10T10:34:27.494Z,5.00
2023-05-10T10:36:55.206Z,4.85
2023-05-10T10:39:21.651Z,5.40
2023-05-10T10:41:51.944Z,5.32
2023-05-10T10:44:27.362Z,5.35
2023-05-10T10:47:10.240Z,5.22
2023-05-10T10:49:42.764Z,5.25
2023-05-10T10:52:32.043Z,4.68
2023-05-10T10:55:02.768Z,5.05
2023-05-10T10:57:32.022Z,4.25
2023-05-10T11:00:23.352Z,4.65
2023-05-10T11:03:15.379Z,4.97
2023-05-10T11:05:48.652Z,4.68
2023-05-10T11:08:22.820Z,4.65
2023-05-10T11:10:54.534Z,4.72
2023-05-10T11:13:41.581Z,4.63
2023-05-10T11:16:22.505Z,4.72
2023-05-10T11:19:07.882Z,4.93
2023-05-10T11:21:45.244Z,4.90
2023-05-10T11:24:18.524Z,4.25
2023-05-10T11:26:45.245Z,4.55
2023-05-10T11:29:14.077Z,4.70
2023-05-10T11:31:47.851Z,4.40
2023-05-10T11:34:25.353Z,4.50
2023-05-10T11:36:54.790Z,3.90
2023-05-10T11:39:22.312Z,4.07
2023-05-10T11:41:50.465Z,3.72
2023-05-10T11:44:17.064Z,4.38
2023-05-10T11:46:43.834Z,4.68
2023-05-10T11:49:11.120Z,4.32
2023-05-10T11:51:37.774Z,3.55
2023-05-10T11:54:10.038Z,3.55
2023-05-10T11:56:37.660Z,3.17
2023-05-10T11:59:04.686Z,3.70
2023-05-10T12:01:32.006Z,3.40
2023-05-10T12:04:01.143Z,3.50
2023-05-10T12:06:32.179Z,3.38
2023-05-10T12:08:59.322Z,3.35
2023-05-10T12:11:28.146Z,3.13
2023-05-10T12:13:55.777Z,2.90
2023-05-10T12:16:24.793Z,2.50
2023-05-10T12:18:52.761Z,2.80
2023-05-10T12:21:20.938Z,2.92
2023-05-10T12:23:50.540Z,2.38
2023-05-10T12:26:17.112Z,2.70
2023-05-10T12:28:43.651Z,2.88
2023-05-10T12:31:10.091Z,3.35
2023-05-10T12:33:44.499Z,2.70
2023-05-10T12:36:12.850Z,3.40
2023-05-10T12:38:43.185Z,2.95
2023-05-10T12:41:12.095Z,2.90
2023-05-10T12:43:39.657Z,2.80
2023-05-10T12:46:08.087Z,2.63
2023-05-10T12:48:35.457Z,2.47
2023-05-10T12:51:03.350Z,2.50
2023-05-10T12:53:30.043Z,2.80
2023-05-10T12:55:57.083Z,2.45
2023-05-10T12:58:34.978Z,2.30
2023-05-10T13:01:03.238Z,2.35
2023-05-10T13:03:29.826Z,2.25
2023-05-10T13:05:56.171Z,2.10
2023-05-10T13:08:22.593Z,2.10
2023-05-10T13:10:49.337Z,2.15
2023-05-10T13:13:16.667Z,3.28
2023-05-10T13:15:43.229Z,3.90
2023-05-10T13:18:09.650Z,3.67
2023-05-10T13:20:36.087Z,3.42
2023-05-10T13:23:03.484Z,4.40
2023-05-10T13:25:29.937Z,4.30
2023-05-10T13:27:56.429Z,4.32
2023-05-10T13:30:23.017Z,4.30
2023-05-10T13:32:49.481Z,3.50
2023-05-10T13:35:16.421Z,3.53
2023-05-10T13:37:42.789Z,3.67
2023-05-10T13:40:09.457Z,3.80
2023-05-10T13:42:35.804Z,4.97
2023-05-10T13:45:05.269Z,4.18
2023-05-10T13:47:31.915Z,4.03
2023-05-10T13:49:58.709Z,3.80
2023-05-10T13:52:25.073Z,4.80
2023-05-10T13:54:53.216Z,4.72
2023-05-10T13:57:19.576Z,4.80
2023-05-10T13:59:45.944Z,5.50
2023-05-10T14:02:13.892Z,4.80
2023-05-10T14:04:40.443Z,4.88
2023-05-10T14:07:06.804Z,5.18
2023-05-10T14:09:33.133Z,4.93
2023-05-10T14:11:59.702Z,4.68
2023-05-10T14:14:26.263Z,4.70
2023-05-10T14:16:52.902Z,5.28
2023-05-10T14:19:19.409Z,4.85
2023-05-10T14:21:45.879Z,4.57
2023-05-10T14:24:12.837Z,4.78
2023-05-10T14:26:39.217Z,4.20
2023-05-10T14:29:05.587Z,5.28
2023-05-10T14:31:32.396Z,4.60
2023-05-10T14:33:58.772Z,4.63
2023-05-10T14:36:25.458Z,4.97
2023-05-10T14:38:52.487Z,5.70
2023-05-10T14:41:18.878Z,5.10
2023-05-10T14:43:45.321Z,5.28
2023-05-10T14:46:12.036Z,4.78
2023-05-10T14:48:38.469Z,5.65
2023-05-10T14:51:04.841Z,5.85
2023-05-10T14:53:31.267Z,6.07
2023-05-10T14:55:58.301Z,5.50
2023-05-10T14:58:24.743Z,6.10
2023-05-10T15:00:51.295Z,5.75
2023-05-10T15:03:18.237Z,6.38
2023-05-10T15:05:45.060Z,6.50
2023-05-10T15:08:13.469Z,6.20
2023-05-10T15:10:40.503Z,5.63
2023-05-10T15:13:07.077Z,5.97
2023-05-10T15:15:33.584Z,6.18
2023-05-10T15:18:00.138Z,7.13
2023-05-10T15:20:26.756Z,6.10
2023-05-10T15:22:53.131Z,6.78
2023-05-10T15:25:20.944Z,6.05
2023-05-10T15:27:47.331Z,6.57
2023-05-10T15:30:13.894Z,6.18
2023-05-10T15:32:40.980Z,5.53
2023-05-10T15:35:09.390Z,6.75
2023-05-10T15:37:35.833Z,6.00
2023-05-10T15:40:04.862Z,5.70
2023-05-10T15:42:32.577Z,6.07
2023-05-10T15:44:59.375Z,6.35
2023-05-10T15:47:27.088Z,5.97
2023-05-10T15:49:53.517Z,5.20
2023-05-10T15:52:21.547Z,5.57
2023-05-10T15:54:47.874Z,6.40
2023-05-10T15:57:14.213Z,5.90
2023-05-10T15:59:40.649Z,4.90
2023-05-10T16:02:08.723Z,5.10
2023-05-10T16:04:35.126Z,4.60
2023-05-10T16:07:01.483Z,4.95
2023-05-10T16:09:28.000Z,4.70
2023-05-10T16:11:54.548Z,4.53
2023-05-10T16:14:24.666Z,4.28
2023-05-10T16:16:51.537Z,4.03
2023-05-10T16:19:18.517Z,4.88
2023-05-10T16:21:45.059Z,4.47
2023-05-10T16:24:12.067Z,5.28
2023-05-10T16:26:41.008Z,5.57
2023-05-10T16:29:08.954Z,5.22
2023-05-10T16:31:35.466Z,5.03
2023-05-10T16:34:02.059Z,4.93
2023-05-10T16:36:29.527Z,4.90
2023-05-10T16:38:56.101Z,4.65
2023-05-10T16:41:22.654Z,4.60
2023-05-10T16:43:49.286Z,5.47
2023-05-10T16:46:16.078Z,5.00
2023-05-10T16:48:42.681Z,4.45
2023-05-10T16:51:09.424Z,4.75
2023-05-10T16:53:36.274Z,3.60
2023-05-10T16:56:03.531Z,3.58
2023-05-10T16:58:29.961Z,3.70
2023-05-10T17:00:56.440Z,3.72
2023-05-10T17:03:23.421Z,3.15
2023-05-10T17:05:50.072Z,3.80
2023-05-10T17:08:16.533Z,3.90
2023-05-10T17:10:43.094Z,3.72
2023-05-10T17:13:10.535Z,4.30
2023-05-10T17:15:38.447Z,3.50
2023-05-10T17:18:05.434Z,2.78
2023-05-10T17:20:31.970Z,3.38
2023-05-10T17:22:58.498Z,2.88
2023-05-10T17:25:24.853Z,3.38
2023-05-10T17:27:51.648Z,3.08
2023-05-10T17:30:22.476Z,3.35
2023-05-10T17:32:48.869Z,3.33
2023-05-10T17:35:15.498Z,3.97
2023-05-10T17:37:42.108Z,3.58
2023-05-10T17:40:10.067Z,3.58
2023-05-10T17:42:38.969Z,3.80
2023-05-10T17:45:05.861Z,3.83
2023-05-10T17:47:32.479Z,5.05
2023-05-10T17:49:58.949Z,3.42
2023-05-10T17:52:25.698Z,4.03
2023-05-10T17:54:53.267Z,4.60
2023-05-10T17:57:20.765Z,4.47
2023-05-10T17:59:47.503Z,4.25
2023-05-10T18:02:13.986Z,4.53
2023-05-10T18:04:41.131Z,4.22
2023-05-10T18:07:08.571Z,4.65
2023-05-10T18:09:35.344Z,4.50
2023-05-10T18:12:02.917Z,5.03
2023-05-10T18:14:39.912Z,4.85
2023-05-10T18:19:34.157Z,4.70
2023-05-10T18:22:00.562Z,5.13
2023-05-10T18:24:40.176Z,5.18
2023-05-10T18:27:08.725Z,5.40
2023-05-10T18:29:36.095Z,4.80
2023-05-10T18:32:02.530Z,5.38
2023-05-10T18:34:28.939Z,5.13
2023-05-10T18:36:55.799Z,5.75
2023-05-10T18:39:22.176Z,5.90
2023-05-10T18:41:50.110Z,5.20
2023-05-10T18:44:16.495Z,5.32
2023-05-10T18:46:42.918Z,5.05
2023-05-10T18:49:09.555Z,6.43
2023-05-10T18:51:35.998Z,5.85
2023-05-10T18:54:02.411Z,5.63
2023-05-10T18:56:28.803Z,5.97
2023-05-10T18:58:55.220Z,6.00
2023-05-10T19:01:21.937Z,5.60
2023-05-10T19:03:48.345Z,6.30
2023-05-10T19:06:14.822Z,6.60
2023-05-10T19:08:41.221Z,6.57
2023-05-10T19:11:07.637Z,5.47
2023-05-10T19:13:34.261Z,6.18
2023-05-10T19:16:12.476Z,7.18
2023-05-10T19:18:39.812Z,6.45
2023-05-10T19:21:07.588Z,7.13
2023-05-10T19:23:34.830Z,5.95
2023-05-10T19:26:01.534Z,6.88
2023-05-10T19:28:28.223Z,6.88
2023-05-10T19:30:54.608Z,7.43
2023-05-10T19:33:28.349Z,6.57
2023-05-10T19:35:55.393Z,7.10
2023-05-10T19:38:22.833Z,5.97
2023-05-10T19:40:50.634Z,7.05
2023-05-10T19:43:17.134Z,6.90
2023-05-10T19:45:44.000Z,6.45
2023-05-10T19:48:11.064Z,6.55
2023-05-10T19:50:38.349Z,6.25
2023-05-10T19:53:04.857Z,7.28
2023-05-10T19:55:32.135Z,7.13
2023-05-10T19:58:00.597Z,6.72
2023-05-10T20:00:29.924Z,7.00
2023-05-10T20:02:56.453Z,7.18
2023-05-10T20:05:23.320Z,7.30
2023-05-10T20:07:50.329Z,7.35
2023-05-10T20:10:17.601Z,6.97
2023-05-10T20:12:52.801Z,7.00
2023-05-10T20:15:21.795Z,7.32
2023-05-10T20:17:49.489Z,6.50
2023-05-10T20:20:16.651Z,7.28
2023-05-10T20:22:45.473Z,7.63
2023-05-10T20:25:12.312Z,7.15
2023-05-10T20:27:38.967Z,6.60
2023-05-10T20:30:06.242Z,8.07
2023-05-10T20:32:32.999Z,7.35
2023-05-10T20:34:59.636Z,7.38
2023-05-10T20:37:27.514Z,6.85
2023-05-10T20:39:54.672Z,7.00
2023-05-10T20:42:22.112Z,7.10
2023-05-10T20:44:48.674Z,8.55
2023-05-10T20:47:15.783Z,8.05
2023-05-10T20:49:42.773Z,7.65
2023-05-10T20:52:09.481Z,8.05
2023-05-10T20:54:35.915Z,7.75
2023-05-10T20:57:02.363Z,7.30
2023-05-10T20:59:29.287Z,7.60
2023-05-10T21:01:57.400Z,7.95
2023-05-10T21:04:25.462Z,6.80
2023-05-10T21:06:52.947Z,7.35
2023-05-10T21:09:19.462Z,7.18
2023-05-10T21:11:45.873Z,7.45
2023-05-10T21:14:12.309Z,7.32
2023-05-10T21:16:38.944Z,8.02
2023-05-10T21:19:07.074Z,7.57
2023-05-10T21:21:33.775Z,6.78
2023-05-10T21:24:00.188Z,7.20
2023-05-10T21:26:26.604Z,6.95
2023-05-10T21:28:53.222Z,8.05
2023-05-10T21:31:19.636Z,7.85
2023-05-10T21:33:46.042Z,7.68
2023-05-10T21:36:12.482Z,8.75
2023-05-10T21:38:39.368Z,6.78
2023-05-10T21:41:08.542Z,7.05
2023-05-10T21:43:35.003Z,8.45
2023-05-10T21:46:01.533Z,7.65
2023-05-10T21:48:28.381Z,8.65
2023-05-10T21:50:55.057Z,7.82
2023-05-10T21:53:22.222Z,7.47
2023-05-10T21:55:48.607Z,7.05
2023-05-10T21:58:14.957Z,7.05
2023-05-10T22:00:41.334Z,7.43
2023-05-10T22:03:07.868Z,8.13
2023-05-10T22:05:34.371Z,7.40
2023-05-10T22:08:00.930Z,7.45
2023-05-10T22:10:27.401Z,7.30
2023-05-10T22:12:53.856Z,7.13
2023-05-10T22:15:20.264Z,8.27
2023-05-10T22:17:46.688Z,7.85
2023-05-10T22:20:13.247Z,6.60
2023-05-10T22:22:39.662Z,6.80
2023-05-10T22:25:07.346Z,6.85
2023-05-10T22:27:34.237Z,6.45
2023-05-10T22:30:00.827Z,6.82
2023-05-10T22:32:27.185Z,7.88
2023-05-10T22:34:53.600Z,7.22
2023-05-10T22:37:20.030Z,7.18
2023-05-10T22:39:46.750Z,7.90
2023-05-10T22:42:13.176Z,8.18
2023-05-10T22:44:39.641Z,7.93
2023-05-10T22:47:06.749Z,8.77
2023-05-10T22:49:33.679Z,7.78
2023-05-10T22:52:00.570Z,7.65
2023-05-10T22:54:27.820Z,8.55
2023-05-10T22:56:54.434Z,8.18
2023-05-10T22:59:21.028Z,7.93
2023-05-10T23:01:48.860Z,8.55
2023-05-10T23:04:15.781Z,8.30
2023-05-10T23:06:42.265Z,8.82
2023-05-10T23:09:08.955Z,9.00
2023-05-10T23:11:35.323Z,8.80
2023-05-10T23:14:01.709Z,8.98
2023-05-10T23:16:28.117Z,9.60
2023-05-10T23:18:54.770Z,9.15
2023-05-10T23:21:21.470Z,8.52
2023-05-10T23:23:47.974Z,9.43
2023-05-10T23:26:14.432Z,9.63
2023-05-10T23:28:40.960Z,8.90
2023-05-10T23:31:07.307Z,8.93
2023-05-10T23:33:33.813Z,9.57
2023-05-10T23:36:00.397Z,9.25
2023-05-10T23:38:26.944Z,10.15
2023-05-10T23:40:53.420Z,9.70
2023-05-10T23:43:20.706Z,9.13
2023-05-10T23:45:57.684Z,10.35
2023-05-10T23:48:24.392Z,9.38
2023-05-10T23:50:50.927Z,10.93
2023-05-10T23:53:17.435Z,9.52
2023-05-10T23:55:44.370Z,9.93
2023-05-10T23:58:11.632Z,10.45
